sensor_id;sensor_type;location;lat;lon;timestamp;P1;durP1;ratioP1;P2;durP2;ratioP2
20567;SDS011;10442;49.932;11.592;2022-11-20T00:01:27;19.67;;;15.03;;
20567;SDS011;10442;49.932;11.592;2022-11-20T00:03:55;19.30;;;14.20;;
20567;SDS011;10442;49.932;11.592;2022-11-20T00:06:25;20.00;;;13.77;;
20567;SDS011;10442;49.932;11.592;2022-11-20T00:08:54;21.47;;;14.63;;
20567;SDS011;10442;49.932;11.592;2022-11-20T00:11:24;17.63;;;12.53;;
20567;SDS011;10442;49.932;11.592;2022-11-20T00:13:54;21.60;;;16.90;;
20567;SDS011;10442;49.932;11.592;2022-11-20T00:16:27;21.70;;;14.63;;
20567;SDS011;10442;49.932;11.592;2022-11-20T00:18:56;17.90;;;14.17;;
20567;SDS011;10442;49.932;11.592;2022-11-20T00:21:27;21.47;;;13.27;;
20567;SDS011;10442;49.932;11.592;2022-11-20T00:23:56;16.73;;;13.17;;
20567;SDS011;10442;49.932;11.592;2022-11-20T00:26:24;18.00;;;12.73;;
20567;SDS011;10442;49.932;11.592;2022-11-20T00:28:56;17.40;;;13.43;;
20567;SDS011;10442;49.932;11.592;2022-11-20T00:31:26;18.80;;;14.33;;
20567;SDS011;10442;49.932;11.592;2022-11-20T00:33:54;18.33;;;15.30;;
20567;SDS011;10442;49.932;11.592;2022-11-20T00:36:23;20.63;;;13.60;;
20567;SDS011;10442;49.932;11.592;2022-11-20T00:38:56;18.43;;;13.50;;
20567;SDS011;10442;49.932;11.592;2022-11-20T00:41:25;17.77;;;13.33;;
20567;SDS011;10442;49.932;11.592;2022-11-20T00:43:54;21.40;;;13.90;;
20567;SDS011;10442;49.932;11.592;2022-11-20T00:46:23;22.67;;;16.07;;
20567;SDS011;10442;49.932;11.592;2022-11-20T00:48:52;16.70;;;13.17;;
20567;SDS011;10442;49.932;11.592;2022-11-20T00:51:21;16.57;;;13.43;;
20567;SDS011;10442;49.932;11.592;2022-11-20T00:53:50;18.10;;;14.47;;
20567;SDS011;10442;49.932;11.592;2022-11-20T00:56:18;15.03;;;11.87;;
20567;SDS011;10442;49.932;11.592;2022-11-20T00:58:47;16.37;;;12.77;;
20567;SDS011;10442;49.932;11.592;2022-11-20T01:01:19;17.47;;;13.17;;
20567;SDS011;10442;49.932;11.592;2022-11-20T01:03:52;16.37;;;13.30;;
20567;SDS011;10442;49.932;11.592;2022-11-20T01:06:23;18.97;;;12.73;;
20567;SDS011;10442;49.932;11.592;2022-11-20T01:08:55;15.63;;;12.30;;
20567;SDS011;10442;49.932;11.592;2022-11-20T01:11:26;18.23;;;14.20;;
20567;SDS011;10442;49.932;11.592;2022-11-20T01:13:55;17.17;;;13.20;;
20567;SDS011;10442;49.932;11.592;2022-11-20T01:16:25;16.83;;;12.60;;
20567;SDS011;10442;49.932;11.592;2022-11-20T01:19:04;18.50;;;16.23;;
20567;SDS011;10442;49.932;11.592;2022-11-20T01:21:33;15.63;;;13.23;;
20567;SDS011;10442;49.932;11.592;2022-11-20T01:24:03;18.93;;;15.07;;
20567;SDS011;10442;49.932;11.592;2022-11-20T01:26:32;18.40;;;14.13;;
20567;SDS011;10442;49.932;11.592;2022-11-20T01:29:02;18.00;;;13.90;;
20567;SDS011;10442;49.932;11.592;2022-11-20T01:31:33;21.17;;;15.90;;
20567;SDS011;10442;49.932;11.592;2022-11-20T01:34:13;16.07;;;14.37;;
20567;SDS011;10442;49.932;11.592;2022-11-20T01:36:43;16.47;;;12.70;;
20567;SDS011;10442;49.932;11.592;2022-11-20T01:39:12;17.93;;;14.67;;
20567;SDS011;10442;49.932;11.592;2022-11-20T01:41:45;14.73;;;12.77;;
20567;SDS011;10442;49.932;11.592;2022-11-20T01:44:50;19.27;;;15.40;;
20567;SDS011;10442;49.932;11.592;2022-11-20T01:47:21;20.07;;;15.87;;
20567;SDS011;10442;49.932;11.592;2022-11-20T01:49:54;18.53;;;14.13;;
20567;SDS011;10442;49.932;11.592;2022-11-20T01:52:28;17.97;;;14.53;;
20567;SDS011;10442;49.932;11.592;2022-11-20T01:55:04;17.37;;;13.13;;
20567;SDS011;10442;49.932;11.592;2022-11-20T01:57:33;18.43;;;13.67;;
20567;SDS011;10442;49.932;11.592;2022-11-20T02:00:07;15.00;;;13.13;;
20567;SDS011;10442;49.932;11.592;2022-11-20T02:02:45;15.93;;;12.73;;
20567;SDS011;10442;49.932;11.592;2022-11-20T02:05:30;16.63;;;13.97;;
20567;SDS011;10442;49.932;11.592;2022-11-20T02:07:59;15.90;;;13.40;;
20567;SDS011;10442;49.932;11.592;2022-11-20T02:10:29;15.33;;;12.80;;
20567;SDS011;10442;49.932;11.592;2022-11-20T02:12:57;18.10;;;13.60;;
20567;SDS011;10442;49.932;11.592;2022-11-20T02:15:43;14.40;;;12.40;;
20567;SDS011;10442;49.932;11.592;2022-11-20T02:18:13;17.93;;;14.10;;
20567;SDS011;10442;49.932;11.592;2022-11-20T02:20:42;17.07;;;13.33;;
20567;SDS011;10442;49.932;11.592;2022-11-20T02:23:12;15.10;;;12.97;;
20567;SDS011;10442;49.932;11.592;2022-11-20T02:25:43;17.47;;;13.97;;
20567;SDS011;10442;49.932;11.592;2022-11-20T02:28:14;14.60;;;12.83;;
20567;SDS011;10442;49.932;11.592;2022-11-20T02:30:42;16.60;;;13.80;;
20567;SDS011;10442;49.932;11.592;2022-11-20T02:33:09;19.33;;;15.70;;
20567;SDS011;10442;49.932;11.592;2022-11-20T02:35:39;14.93;;;13.33;;
20567;SDS011;10442;49.932;11.592;2022-11-20T02:38:09;20.10;;;14.47;;
20567;SDS011;10442;49.932;11.592;2022-11-20T02:40:37;14.83;;;13.23;;
20567;SDS011;10442;49.932;11.592;2022-11-20T02:43:05;17.77;;;13.27;;
20567;SDS011;10442;49.932;11.592;2022-11-20T02:45:32;19.33;;;14.77;;
20567;SDS011;10442;49.932;11.592;2022-11-20T02:48:00;16.97;;;13.27;;
20567;SDS011;10442;49.932;11.592;2022-11-20T02:50:27;18.37;;;12.80;;
20567;SDS011;10442;49.932;11.592;2022-11-20T02:52:54;16.07;;;13.47;;
20567;SDS011;10442;49.932;11.592;2022-11-20T02:55:22;15.97;;;13.83;;
20567;SDS011;10442;49.932;11.592;2022-11-20T02:57:49;19.10;;;13.27;;
20567;SDS011;10442;49.932;11.592;2022-11-20T03:00:17;16.47;;;14.60;;
20567;SDS011;10442;49.932;11.592;2022-11-20T03:02:44;15.30;;;12.73;;
20567;SDS011;10442;49.932;11.592;2022-11-20T03:05:12;16.17;;;12.93;;
20567;SDS011;10442;49.932;11.592;2022-11-20T03:07:40;22.23;;;14.30;;
20567;SDS011;10442;49.932;11.592;2022-11-20T03:10:07;19.03;;;14.13;;
20567;SDS011;10442;49.932;11.592;2022-11-20T03:12:35;15.37;;;12.97;;
20567;SDS011;10442;49.932;11.592;2022-11-20T03:15:02;17.33;;;13.80;;
20567;SDS011;10442;49.932;11.592;2022-11-20T03:17:30;16.77;;;13.50;;
20567;SDS011;10442;49.932;11.592;2022-11-20T03:19:57;16.10;;;13.47;;
20567;SDS011;10442;49.932;11.592;2022-11-20T03:22:25;14.67;;;12.37;;
20567;SDS011;10442;49.932;11.592;2022-11-20T03:24:52;16.73;;;13.27;;
20567;SDS011;10442;49.932;11.592;2022-11-20T03:27:19;16.37;;;13.03;;
20567;SDS011;10442;49.932;11.592;2022-11-20T03:29:47;16.30;;;14.03;;
20567;SDS011;10442;49.932;11.592;2022-11-20T03:32:14;18.43;;;14.43;;
20567;SDS011;10442;49.932;11.592;2022-11-20T03:34:42;15.27;;;11.90;;
20567;SDS011;10442;49.932;11.592;2022-11-20T03:37:09;18.07;;;14.40;;
20567;SDS011;10442;49.932;11.592;2022-11-20T03:39:37;19.03;;;14.97;;
20567;SDS011;10442;49.932;11.592;2022-11-20T03:42:04;16.83;;;14.97;;
20567;SDS011;10442;49.932;11.592;2022-11-20T03:44:52;18.33;;;13.50;;
20567;SDS011;10442;49.932;11.592;2022-11-20T03:47:19;17.30;;;13.40;;
20567;SDS011;10442;49.932;11.592;2022-11-20T03:49:46;18.27;;;14.90;;
20567;SDS011;10442;49.932;11.592;2022-11-20T03:52:14;18.67;;;14.87;;
20567;SDS011;10442;49.932;11.592;2022-11-20T03:54:41;14.73;;;12.80;;
20567;SDS011;10442;49.932;11.592;2022-11-20T03:57:09;19.80;;;14.63;;
20567;SDS011;10442;49.932;11.592;2022-11-20T03:59:36;15.87;;;13.57;;
20567;SDS011;10442;49.932;11.592;2022-11-20T04:02:03;14.60;;;12.47;;
20567;SDS011;10442;49.932;11.592;2022-11-20T04:04:30;17.57;;;14.37;;
20567;SDS011;10442;49.932;11.592;2022-11-20T04:06:58;15.23;;;13.63;;
20567;SDS011;10442;49.932;11.592;2022-11-20T04:09:25;17.70;;;13.93;;
20567;SDS011;10442;49.932;11.592;2022-11-20T04:11:52;15.63;;;14.03;;
20567;SDS011;10442;49.932;11.592;2022-11-20T04:14:20;16.23;;;12.90;;
20567;SDS011;10442;49.932;11.592;2022-11-20T04:16:47;16.30;;;12.63;;
20567;SDS011;10442;49.932;11.592;2022-11-20T04:19:15;17.20;;;13.90;;
20567;SDS011;10442;49.932;11.592;2022-11-20T04:21:43;16.27;;;12.20;;
20567;SDS011;10442;49.932;11.592;2022-11-20T04:24:11;14.83;;;12.07;;
20567;SDS011;10442;49.932;11.592;2022-11-20T04:26:39;16.27;;;12.43;;
20567;SDS011;10442;49.932;11.592;2022-11-20T04:29:09;14.57;;;11.87;;
20567;SDS011;10442;49.932;11.592;2022-11-20T04:31:38;16.63;;;13.43;;
20567;SDS011;10442;49.932;11.592;2022-11-20T04:34:06;16.30;;;12.90;;
20567;SDS011;10442;49.932;11.592;2022-11-20T04:36:34;16.20;;;13.17;;
20567;SDS011;10442;49.932;11.592;2022-11-20T04:39:02;17.03;;;13.83;;
20567;SDS011;10442;49.932;11.592;2022-11-20T04:41:32;14.73;;;12.20;;
20567;SDS011;10442;49.932;11.592;2022-11-20T04:44:02;15.43;;;12.50;;
20567;SDS011;10442;49.932;11.592;2022-11-20T04:46:32;13.67;;;11.97;;
20567;SDS011;10442;49.932;11.592;2022-11-20T04:49:04;13.83;;;11.97;;
20567;SDS011;10442;49.932;11.592;2022-11-20T04:51:32;14.77;;;13.17;;
20567;SDS011;10442;49.932;11.592;2022-11-20T04:53:59;13.73;;;12.27;;
20567;SDS011;10442;49.932;11.592;2022-11-20T04:56:27;15.17;;;12.23;;
20567;SDS011;10442;49.932;11.592;2022-11-20T04:58:55;14.93;;;13.33;;
20567;SDS011;10442;49.932;11.592;2022-11-20T05:01:23;14.53;;;13.00;;
20567;SDS011;10442;49.932;11.592;2022-11-20T05:03:51;15.43;;;13.37;;
20567;SDS011;10442;49.932;11.592;2022-11-20T05:06:19;16.50;;;13.53;;
20567;SDS011;10442;49.932;11.592;2022-11-20T05:08:48;18.30;;;13.63;;
20567;SDS011;10442;49.932;11.592;2022-11-20T05:11:16;14.73;;;12.47;;
20567;SDS011;10442;49.932;11.592;2022-11-20T05:13:45;12.83;;;11.47;;
20567;SDS011;10442;49.932;11.592;2022-11-20T05:16:15;16.90;;;14.27;;
20567;SDS011;10442;49.932;11.592;2022-11-20T05:18:50;14.90;;;12.27;;
20567;SDS011;10442;49.932;11.592;2022-11-20T05:21:18;16.53;;;12.67;;
20567;SDS011;10442;49.932;11.592;2022-11-20T05:23:46;14.60;;;13.17;;
20567;SDS011;10442;49.932;11.592;2022-11-20T05:26:20;17.87;;;14.50;;
20567;SDS011;10442;49.932;11.592;2022-11-20T05:28:48;15.70;;;13.37;;
20567;SDS011;10442;49.932;11.592;2022-11-20T05:31:18;17.60;;;14.23;;
20567;SDS011;10442;49.932;11.592;2022-11-20T05:33:53;17.50;;;15.23;;
20567;SDS011;10442;49.932;11.592;2022-11-20T05:36:21;16.93;;;13.47;;
20567;SDS011;10442;49.932;11.592;2022-11-20T05:38:48;16.83;;;14.40;;
20567;SDS011;10442;49.932;11.592;2022-11-20T05:41:18;18.67;;;14.37;;
20567;SDS011;10442;49.932;11.592;2022-11-20T05:43:47;21.03;;;15.10;;
20567;SDS011;10442;49.932;11.592;2022-11-20T05:46:16;21.27;;;16.90;;
20567;SDS011;10442;49.932;11.592;2022-11-20T05:48:54;19.17;;;15.23;;
20567;SDS011;10442;49.932;11.592;2022-11-20T05:51:22;17.07;;;14.27;;
20567;SDS011;10442;49.932;11.592;2022-11-20T05:53:50;18.83;;;15.10;;
20567;SDS011;10442;49.932;11.592;2022-11-20T05:56:18;19.13;;;15.77;;
20567;SDS011;10442;49.932;11.592;2022-11-20T05:58:47;22.83;;;18.47;;
20567;SDS011;10442;49.932;11.592;2022-11-20T06:01:19;20.20;;;16.20;;
20567;SDS011;10442;49.932;11.592;2022-11-20T06:03:48;23.77;;;17.43;;
20567;SDS011;10442;49.932;11.592;2022-11-20T06:06:17;22.87;;;17.93;;
20567;SDS011;10442;49.932;11.592;2022-11-20T06:08:45;20.07;;;17.83;;
20567;SDS011;10442;49.932;11.592;2022-11-20T06:11:13;21.63;;;16.93;;
20567;SDS011;10442;49.932;11.592;2022-11-20T06:13:41;23.13;;;18.00;;
20567;SDS011;10442;49.932;11.592;2022-11-20T06:16:09;20.30;;;16.33;;
20567;SDS011;10442;49.932;11.592;2022-11-20T06:18:38;20.20;;;16.37;;
20567;SDS011;10442;49.932;11.592;2022-11-20T06:21:07;19.90;;;15.20;;
20567;SDS011;10442;49.932;11.592;2022-11-20T06:23:36;19.13;;;16.17;;
20567;SDS011;10442;49.932;11.592;2022-11-20T06:26:05;18.37;;;14.80;;
20567;SDS011;10442;49.932;11.592;2022-11-20T06:28:33;21.20;;;16.97;;
20567;SDS011;10442;49.932;11.592;2022-11-20T06:31:01;21.33;;;16.27;;
20567;SDS011;10442;49.932;11.592;2022-11-20T06:33:29;20.80;;;16.53;;
20567;SDS011;10442;49.932;11.592;2022-11-20T06:35:57;21.10;;;16.33;;
20567;SDS011;10442;49.932;11.592;2022-11-20T06:38:33;18.67;;;15.13;;
20567;SDS011;10442;49.932;11.592;2022-11-20T06:41:00;21.87;;;17.47;;
20567;SDS011;10442;49.932;11.592;2022-11-20T06:43:28;23.60;;;19.13;;
20567;SDS011;10442;49.932;11.592;2022-11-20T06:45:57;22.77;;;16.73;;
20567;SDS011;10442;49.932;11.592;2022-11-20T06:48:26;22.87;;;18.47;;
20567;SDS011;10442;49.932;11.592;2022-11-20T06:50:54;19.53;;;15.77;;
20567;SDS011;10442;49.932;11.592;2022-11-20T06:53:22;22.00;;;18.27;;
20567;SDS011;10442;49.932;11.592;2022-11-20T06:55:51;20.07;;;17.53;;
20567;SDS011;10442;49.932;11.592;2022-11-20T06:58:18;23.73;;;17.67;;
20567;SDS011;10442;49.932;11.592;2022-11-20T07:00:46;21.80;;;18.07;;
20567;SDS011;10442;49.932;11.592;2022-11-20T07:03:13;21.70;;;16.20;;
20567;SDS011;10442;49.932;11.592;2022-11-20T07:05:41;21.73;;;17.40;;
20567;SDS011;10442;49.932;11.592;2022-11-20T07:08:08;22.17;;;18.83;;
20567;SDS011;10442;49.932;11.592;2022-11-20T07:10:36;21.67;;;17.20;;
20567;SDS011;10442;49.932;11.592;2022-11-20T07:13:03;21.10;;;17.80;;
20567;SDS011;10442;49.932;11.592;2022-11-20T07:15:31;22.47;;;17.87;;
20567;SDS011;10442;49.932;11.592;2022-11-20T07:17:58;21.10;;;16.77;;
20567;SDS011;10442;49.932;11.592;2022-11-20T07:20:27;20.93;;;16.13;;
20567;SDS011;10442;49.932;11.592;2022-11-20T07:22:55;21.33;;;17.80;;
20567;SDS011;10442;49.932;11.592;2022-11-20T07:25:24;20.33;;;17.87;;
20567;SDS011;10442;49.932;11.592;2022-11-20T07:27:56;20.13;;;16.67;;
20567;SDS011;10442;49.932;11.592;2022-11-20T07:30:27;23.17;;;18.03;;
20567;SDS011;10442;49.932;11.592;2022-11-20T07:32:55;21.20;;;16.93;;
20567;SDS011;10442;49.932;11.592;2022-11-20T07:35:24;22.63;;;17.87;;
20567;SDS011;10442;49.932;11.592;2022-11-20T07:37:51;20.17;;;17.03;;
20567;SDS011;10442;49.932;11.592;2022-11-20T07:40:19;19.83;;;16.47;;
20567;SDS011;10442;49.932;11.592;2022-11-20T07:42:48;19.63;;;15.93;;
20567;SDS011;10442;49.932;11.592;2022-11-20T07:45:20;26.20;;;19.67;;
20567;SDS011;10442;49.932;11.592;2022-11-20T07:47:48;22.80;;;18.03;;
20567;SDS011;10442;49.932;11.592;2022-11-20T07:50:16;21.67;;;17.47;;
20567;SDS011;10442;49.932;11.592;2022-11-20T07:52:44;19.17;;;15.23;;
20567;SDS011;10442;49.932;11.592;2022-11-20T07:55:11;19.57;;;15.10;;
20567;SDS011;10442;49.932;11.592;2022-11-20T07:57:39;22.33;;;18.37;;
20567;SDS011;10442;49.932;11.592;2022-11-20T08:00:07;22.50;;;17.83;;
20567;SDS011;10442;49.932;11.592;2022-11-20T08:02:40;23.83;;;19.37;;
20567;SDS011;10442;49.932;11.592;2022-11-20T08:05:08;23.27;;;17.50;;
20567;SDS011;10442;49.932;11.592;2022-11-20T08:07:39;21.97;;;18.70;;
20567;SDS011;10442;49.932;11.592;2022-11-20T08:10:09;23.97;;;18.37;;
20567;SDS011;10442;49.932;11.592;2022-11-20T08:12:46;22.53;;;17.53;;
20567;SDS011;10442;49.932;11.592;2022-11-20T08:15:33;24.00;;;17.10;;
20567;SDS011;10442;49.932;11.592;2022-11-20T08:18:05;24.10;;;20.23;;
20567;SDS011;10442;49.932;11.592;2022-11-20T08:20:57;23.20;;;19.10;;
20567;SDS011;10442;49.932;11.592;2022-11-20T08:23:27;22.83;;;18.27;;
20567;SDS011;10442;49.932;11.592;2022-11-20T08:25:55;21.73;;;17.70;;
20567;SDS011;10442;49.932;11.592;2022-11-20T08:28:24;20.73;;;18.10;;
20567;SDS011;10442;49.932;11.592;2022-11-20T08:30:56;22.27;;;18.80;;
20567;SDS011;10442;49.932;11.592;2022-11-20T08:33:28;21.60;;;17.17;;
20567;SDS011;10442;49.932;11.592;2022-11-20T08:36:00;19.37;;;16.23;;
20567;SDS011;10442;49.932;11.592;2022-11-20T08:38:30;22.30;;;18.10;;
20567;SDS011;10442;49.932;11.592;2022-11-20T08:40:59;23.17;;;17.97;;
20567;SDS011;10442;49.932;11.592;2022-11-20T08:43:46;19.40;;;16.43;;
20567;SDS011;10442;49.932;11.592;2022-11-20T08:46:13;21.30;;;17.33;;
20567;SDS011;10442;49.932;11.592;2022-11-20T08:48:41;22.70;;;17.47;;
20567;SDS011;10442;49.932;11.592;2022-11-20T08:51:09;22.40;;;19.03;;
20567;SDS011;10442;49.932;11.592;2022-11-20T08:53:38;18.47;;;16.47;;
20567;SDS011;10442;49.932;11.592;2022-11-20T08:56:06;24.33;;;18.17;;
20567;SDS011;10442;49.932;11.592;2022-11-20T08:58:33;21.40;;;16.90;;
20567;SDS011;10442;49.932;11.592;2022-11-20T09:01:21;19.27;;;16.27;;
20567;SDS011;10442;49.932;11.592;2022-11-20T09:03:50;21.33;;;18.17;;
20567;SDS011;10442;49.932;11.592;2022-11-20T09:06:17;20.53;;;18.33;;
20567;SDS011;10442;49.932;11.592;2022-11-20T09:08:45;19.00;;;16.50;;
20567;SDS011;10442;49.932;11.592;2022-11-20T09:11:12;21.03;;;17.30;;
20567;SDS011;10442;49.932;11.592;2022-11-20T09:13:40;20.07;;;17.17;;
20567;SDS011;10442;49.932;11.592;2022-11-20T09:16:08;24.20;;;19.03;;
20567;SDS011;10442;49.932;11.592;2022-11-20T09:18:35;20.63;;;17.67;;
20567;SDS011;10442;49.932;11.592;2022-11-20T09:21:05;20.90;;;16.33;;
20567;SDS011;10442;49.932;11.592;2022-11-20T09:23:37;22.37;;;18.37;;
20567;SDS011;10442;49.932;11.592;2022-11-20T09:26:06;23.37;;;18.00;;
20567;SDS011;10442;49.932;11.592;2022-11-20T09:28:37;20.07;;;16.80;;
20567;SDS011;10442;49.932;11.592;2022-11-20T09:31:06;23.43;;;18.27;;
20567;SDS011;10442;49.932;11.592;2022-11-20T09:33:46;19.87;;;17.03;;
20567;SDS011;10442;49.932;11.592;2022-11-20T09:36:13;21.50;;;17.20;;
20567;SDS011;10442;49.932;11.592;2022-11-20T09:38:41;23.27;;;19.20;;
20567;SDS011;10442;49.932;11.592;2022-11-20T09:44:24;23.70;;;18.83;;
20567;SDS011;10442;49.932;11.592;2022-11-20T09:47:12;20.37;;;18.17;;
20567;SDS011;10442;49.932;11.592;2022-11-20T09:55:15;21.80;;;17.60;;
20567;SDS011;10442;49.932;11.592;2022-11-20T09:57:44;24.17;;;18.83;;
20567;SDS011;10442;49.932;11.592;2022-11-20T10:00:14;22.37;;;18.83;;
20567;SDS011;10442;49.932;11.592;2022-11-20T10:05:21;21.17;;;16.53;;
20567;SDS011;10442;49.932;11.592;2022-11-20T10:10:40;22.27;;;18.40;;
20567;SDS011;10442;49.932;11.592;2022-11-20T10:27:03;17.97;;;16.07;;
20567;SDS011;10442;49.932;11.592;2022-11-20T10:30:08;23.70;;;17.83;;
20567;SDS011;10442;49.932;11.592;2022-11-20T10:32:39;21.00;;;16.40;;
20567;SDS011;10442;49.932;11.592;2022-11-20T10:38:09;22.60;;;17.33;;
20567;SDS011;10442;49.932;11.592;2022-11-20T10:40:48;23.77;;;18.87;;
20567;SDS011;10442;49.932;11.592;2022-11-20T10:43:21;20.70;;;16.77;;
20567;SDS011;10442;49.932;11.592;2022-11-20T10:46:00;20.43;;;16.53;;
20567;SDS011;10442;49.932;11.592;2022-11-20T10:48:31;20.43;;;17.67;;
20567;SDS011;10442;49.932;11.592;2022-11-20T11:01:40;22.77;;;18.87;;
20567;SDS011;10442;49.932;11.592;2022-11-20T11:04:18;21.17;;;16.90;;
20567;SDS011;10442;49.932;11.592;2022-11-20T11:06:52;21.23;;;18.30;;
20567;SDS011;10442;49.932;11.592;2022-11-20T11:09:32;23.10;;;18.77;;
20567;SDS011;10442;49.932;11.592;2022-11-20T11:12:07;20.93;;;17.67;;
20567;SDS011;10442;49.932;11.592;2022-11-20T11:14:47;22.27;;;18.37;;
20567;SDS011;10442;49.932;11.592;2022-11-20T11:20:06;19.93;;;17.07;;
20567;SDS011;10442;49.932;11.592;2022-11-20T11:22:43;23.50;;;17.40;;
20567;SDS011;10442;49.932;11.592;2022-11-20T11:25:34;19.90;;;15.83;;
20567;SDS011;10442;49.932;11.592;2022-11-20T11:28:04;18.90;;;16.10;;
20567;SDS011;10442;49.932;11.592;2022-11-20T11:30:44;18.70;;;15.90;;
20567;SDS011;10442;49.932;11.592;2022-11-20T11:33:18;18.80;;;16.20;;
20567;SDS011;10442;49.932;11.592;2022-11-20T11:35:49;18.93;;;15.43;;
20567;SDS011;10442;49.932;11.592;2022-11-20T11:38:21;18.70;;;15.73;;
20567;SDS011;10442;49.932;11.592;2022-11-20T11:41:03;18.10;;;15.47;;
20567;SDS011;10442;49.932;11.592;2022-11-20T11:43:34;19.83;;;16.20;;
20567;SDS011;10442;49.932;11.592;2022-11-20T11:46:27;22.20;;;18.03;;
20567;SDS011;10442;49.932;11.592;2022-11-20T11:49:10;19.80;;;17.33;;
20567;SDS011;10442;49.932;11.592;2022-11-20T11:51:51;20.63;;;18.10;;
20567;SDS011;10442;49.932;11.592;2022-11-20T11:54:37;22.87;;;18.47;;
20567;SDS011;10442;49.932;11.592;2022-11-20T11:57:16;21.57;;;18.10;;
20567;SDS011;10442;49.932;11.592;2022-11-20T12:00:00;20.97;;;18.70;;
20567;SDS011;10442;49.932;11.592;2022-11-20T12:05:18;21.53;;;18.50;;
20567;SDS011;10442;49.932;11.592;2022-11-20T12:07:50;23.83;;;19.17;;
20567;SDS011;10442;49.932;11.592;2022-11-20T12:10:41;21.57;;;17.87;;
20567;SDS011;10442;49.932;11.592;2022-11-20T12:16:03;22.77;;;19.40;;
20567;SDS011;10442;49.932;11.592;2022-11-20T12:18:31;23.80;;;19.87;;
20567;SDS011;10442;49.932;11.592;2022-11-20T12:21:16;20.70;;;17.80;;
20567;SDS011;10442;49.932;11.592;2022-11-20T12:27:00;22.07;;;17.77;;
20567;SDS011;10442;49.932;11.592;2022-11-20T12:29:37;20.03;;;17.07;;
20567;SDS011;10442;49.932;11.592;2022-11-20T12:35:00;21.30;;;17.40;;
20567;SDS011;10442;49.932;11.592;2022-11-20T12:40:57;21.83;;;18.67;;
20567;SDS011;10442;49.932;11.592;2022-11-20T12:50:47;17.83;;;15.23;;
20567;SDS011;10442;49.932;11.592;2022-11-20T12:56:33;18.53;;;15.50;;
20567;SDS011;10442;49.932;11.592;2022-11-20T12:59:48;20.70;;;17.13;;
20567;SDS011;10442;49.932;11.592;2022-11-20T13:02:35;21.17;;;16.47;;
20567;SDS011;10442;49.932;11.592;2022-11-20T13:07:59;18.73;;;16.23;;
20567;SDS011;10442;49.932;11.592;2022-11-20T13:16:18;18.60;;;15.50;;
20567;SDS011;10442;49.932;11.592;2022-11-20T13:18:53;18.10;;;16.20;;
20567;SDS011;10442;49.932;11.592;2022-11-20T13:21:22;14.73;;;13.23;;
20567;SDS011;10442;49.932;11.592;2022-11-20T13:24:04;14.37;;;12.83;;
20567;SDS011;10442;49.932;11.592;2022-11-20T13:26:32;12.77;;;11.50;;
20567;SDS011;10442;49.932;11.592;2022-11-20T13:29:02;11.63;;;10.53;;
20567;SDS011;10442;49.932;11.592;2022-11-20T13:31:45;12.57;;;11.27;;
20567;SDS011;10442;49.932;11.592;2022-11-20T13:34:24;10.50;;;9.50;;
20567;SDS011;10442;49.932;11.592;2022-11-20T13:36:54;9.73;;;8.83;;
20567;SDS011;10442;49.932;11.592;2022-11-20T13:39:23;8.60;;;7.70;;
20567;SDS011;10442;49.932;11.592;2022-11-20T13:41:56;8.70;;;7.80;;
20567;SDS011;10442;49.932;11.592;2022-11-20T13:44:37;7.63;;;6.93;;
20567;SDS011;10442;49.932;11.592;2022-11-20T13:49:53;8.70;;;7.97;;
20567;SDS011;10442;49.932;11.592;2022-11-20T14:00:43;7.23;;;6.53;;
20567;SDS011;10442;49.932;11.592;2022-11-20T14:03:22;7.07;;;6.47;;
20567;SDS011;10442;49.932;11.592;2022-11-20T14:06:13;7.27;;;6.57;;
20567;SDS011;10442;49.932;11.592;2022-11-20T14:08:48;7.43;;;6.73;;
20567;SDS011;10442;49.932;11.592;2022-11-20T14:13:52;7.47;;;6.70;;
20567;SDS011;10442;49.932;11.592;2022-11-20T14:16:25;6.73;;;6.13;;
20567;SDS011;10442;49.932;11.592;2022-11-20T14:18:55;6.97;;;6.27;;
20567;SDS011;10442;49.932;11.592;2022-11-20T14:21:27;7.07;;;6.37;;
20567;SDS011;10442;49.932;11.592;2022-11-20T14:24:03;7.77;;;6.47;;
20567;SDS011;10442;49.932;11.592;2022-11-20T14:26:32;6.30;;;5.70;;
20567;SDS011;10442;49.932;11.592;2022-11-20T14:29:00;7.33;;;6.73;;
20567;SDS011;10442;49.932;11.592;2022-11-20T14:31:28;6.67;;;5.57;;
20567;SDS011;10442;49.932;11.592;2022-11-20T14:33:55;6.27;;;5.77;;
20567;SDS011;10442;49.932;11.592;2022-11-20T14:36:24;6.47;;;5.87;;
20567;SDS011;10442;49.932;11.592;2022-11-20T14:38:52;6.73;;;6.07;;
20567;SDS011;10442;49.932;11.592;2022-11-20T14:41:21;6.30;;;5.70;;
20567;SDS011;10442;49.932;11.592;2022-11-20T14:43:52;6.80;;;6.20;;
20567;SDS011;10442;49.932;11.592;2022-11-20T14:46:24;9.30;;;8.33;;
20567;SDS011;10442;49.932;11.592;2022-11-20T14:48:56;7.37;;;6.67;;
20567;SDS011;10442;49.932;11.592;2022-11-20T14:51:36;8.20;;;7.47;;
20567;SDS011;10442;49.932;11.592;2022-11-20T14:54:11;7.10;;;6.50;;
20567;SDS011;10442;49.932;11.592;2022-11-20T14:56:56;7.77;;;6.97;;
20567;SDS011;10442;49.932;11.592;2022-11-20T14:59:26;6.27;;;5.57;;
20567;SDS011;10442;49.932;11.592;2022-11-20T15:02:03;8.73;;;7.93;;
20567;SDS011;10442;49.932;11.592;2022-11-20T15:04:32;6.67;;;6.13;;
20567;SDS011;10442;49.932;11.592;2022-11-20T15:06:59;8.60;;;7.73;;
20567;SDS011;10442;49.932;11.592;2022-11-20T15:09:27;6.90;;;6.30;;
20567;SDS011;10442;49.932;11.592;2022-11-20T15:14:27;7.77;;;7.00;;
20567;SDS011;10442;49.932;11.592;2022-11-20T15:16:56;7.17;;;6.57;;
20567;SDS011;10442;49.932;11.592;2022-11-20T15:19:24;7.77;;;7.00;;
20567;SDS011;10442;49.932;11.592;2022-11-20T15:21:53;8.17;;;7.47;;
20567;SDS011;10442;49.932;11.592;2022-11-20T15:24:20;8.80;;;7.93;;
20567;SDS011;10442;49.932;11.592;2022-11-20T15:26:48;7.70;;;7.00;;
20567;SDS011;10442;49.932;11.592;2022-11-20T15:29:15;9.60;;;8.70;;
20567;SDS011;10442;49.932;11.592;2022-11-20T15:31:45;8.27;;;7.50;;
20567;SDS011;10442;49.932;11.592;2022-11-20T15:34:16;8.83;;;8.00;;
20567;SDS011;10442;49.932;11.592;2022-11-20T15:36:43;10.80;;;8.60;;
20567;SDS011;10442;49.932;11.592;2022-11-20T15:39:11;9.33;;;7.93;;
20567;SDS011;10442;49.932;11.592;2022-11-20T15:41:38;10.03;;;9.03;;
20567;SDS011;10442;49.932;11.592;2022-11-20T15:44:06;10.40;;;8.73;;
20567;SDS011;10442;49.932;11.592;2022-11-20T15:46:38;8.70;;;7.80;;
20567;SDS011;10442;49.932;11.592;2022-11-20T15:49:11;11.07;;;9.97;;
20567;SDS011;10442;49.932;11.592;2022-11-20T15:51:41;8.80;;;7.90;;
20567;SDS011;10442;49.932;11.592;2022-11-20T15:54:14;8.33;;;7.53;;
20567;SDS011;10442;49.932;11.592;2022-11-20T15:56:45;10.67;;;8.03;;
20567;SDS011;10442;49.932;11.592;2022-11-20T15:59:13;11.17;;;9.73;;
20567;SDS011;10442;49.932;11.592;2022-11-20T16:01:43;8.70;;;7.77;;
20567;SDS011;10442;49.932;11.592;2022-11-20T16:04:12;8.00;;;7.23;;
20567;SDS011;10442;49.932;11.592;2022-11-20T16:06:41;9.13;;;8.17;;
20567;SDS011;10442;49.932;11.592;2022-11-20T16:09:08;9.20;;;8.30;;
20567;SDS011;10442;49.932;11.592;2022-11-20T16:11:36;9.13;;;8.23;;